Cincinnati, Ohio
Traffic Map
Current Weather Conditions
Cincinnati, Ohio
Broken Clouds
Broken Clouds
77°
Feels Like: 78°
Wind Chill: 77° Ceiling: 2400
Heat Index: 78° Visibility: 9mi
Dew Point: 74° Wind: 0mph
Humidity: 90% Direction: ° ()
Pressure: 30.01in Gusts: 0mph
Raw Report DataKLUK 221553Z 00000KT 9SM BKN024 25/23 A3001 RMK AO2 SLP157 T02500233
Traffic Incident Summary
Active as of:
Severity:
Category:
InformationThere was an issue retrieving the traffic information for this location. Please try a different location or try again shortly.
Advertisements
Track Severe Weather on mobile